ZWWW/URC METAR and TAF weather

Enter ICAO airport designator
Station Type Date Time Source
ZWWW METAR 2021/09/23 17:30 UTC NOAA

ZWWW 231730Z 15003MPS 130V190 CAVOK 15/M04 Q1015 NOSIG


Station Type Date Time Source
ZWWW Decoded METAR 2021/09/23 17:30 UTC NOAA

Urum-Qi / Diwopu, China (ZWWW) 43-54N 087-28E
Sep 23, 2021 - 01:30 PM EDT / 2021.09.23 1730 UTC
Wind: from the SSE (150 degrees) at 7 MPH (6 KT) (direction variable):0
Visibility: greater than 7 mile(s):0
Temperature: 59 F (15 C)
Dew Point: 24 F (-4 C)
Relative Humidity: 26%
Pressure (altimeter): 29.97 in. Hg (1015 hPa)
ob: ZWWW 231730Z 15003MPS 130V190 CAVOK 15/M04 Q1015 NOSIG
cycle: 17

Station Type Date Time Source
ZWWW TAF 2021/09/23 18:03 UTC NOAA

TAF ZWWW 231507Z 2318/2418 18004MPS CAVOK TX17/2406Z TN10/2323Z
BECMG 2402/2403 36004G09MPS
BECMG 2407/2408 9999 -SHRA BKN040
BECMG 2413/2414 20004MPS CAVOK

Example: see airport list